Main page
METAR-TAF:

METAR-TAF

Airports :

Oslo Airport. Gardermoen

Oslo, Norway

latitude: 60-12N, longitude: 011-05E, elevation: 208 m

Current weather observation

The report was made 33 minutes ago, at 01:20 UTC
Wind 1 kt from variable directions
Temperature -3°C
Humidity 68%
Pressure 1014 hPa
Visibility 10 km or more
no clouds below 1500 m and no cumulonimbus

METAR: ENGM 110120Z VRB01KT CAVOK M03/M08 Q1014

Time: 03:53 (01:53 UTC)

Forecast

Forecast valid from 11 at 00 UTC to 11 at 24 UTC
Wind 5 kt from the North/Northwest
Visibility 10 km or more
no clouds below 1500 m and no cumulonimbus
Temporary
from 11 at 17 UTC to 11 at 21 UTC
Few clouds at a height of 3000 ft, Cumulonimbus.
Broken clouds at a height of 4000 ft
Temporary
from 11 at 21 UTC to 11 at 24 UTC
Visibility: 2000 m
at a height of 800 ft
light snow

TAF: ENGM 1100/1124 34005KT CAVOK TEMPO 1117/1121 FEW030CB BKN040 TEMPO 1121/1124 2000 -SN VV008

Weather observations and forecasts of more than 4000 airports (METAR and TAF reports).

The available stations are represented by yellow and red dots on the map.

Hover mouse over dot to see the name of the station.

Then click to see weather observations and forecasts.

To change the map : click on the green buttons with a black cross to zoom in, on the green button with a dash to zoom out, or on the green arrows for adjacent maps.


METAR-TAF: